Terminal Aerodrome Forecast
Issued by NWS

Home | Current Version | Previous Version | Text Only | Print | Product List | Glossary On
Versions: 1 2 3 4 5 6 7 8 9 10 11 12 13 14 15 16 17 18 19 20 21 22
000
FTUS46 KPDT 231600 AAA
TAFBDN
TAF AMD
KBDN 231612Z 2316/2412 20015G22KT P6SM -SHRA FEW020 BKN040 OVC090
      TEMPO 2316/2318 2SM RA BR SCT020
     FM240000 23015G25KT P6SM BKN060
     FM240700 21010KT P6SM BKN060=

USA.gov is the U.S. government's official web portal to all federal, state and local government web resources and services.